sensor_id;sensor_type;location;lat;lon;timestamp;P1;durP1;ratioP1;P2;durP2;ratioP2
71187;SDS011;58893;53.130;8.158;2022-09-09T00:00:40;8.67;;;5.50;;
71187;SDS011;58893;53.130;8.158;2022-09-09T00:03:59;9.77;;;6.60;;
71187;SDS011;58893;53.130;8.158;2022-09-09T00:06:33;11.03;;;6.77;;
71187;SDS011;58893;53.130;8.158;2022-09-09T00:09:13;19.43;;;6.80;;
71187;SDS011;58893;53.130;8.158;2022-09-09T00:14:39;15.00;;;8.60;;
71187;SDS011;58893;53.130;8.158;2022-09-09T00:17:14;19.80;;;8.50;;
71187;SDS011;58893;53.130;8.158;2022-09-09T00:19:50;12.47;;;7.63;;
71187;SDS011;58893;53.130;8.158;2022-09-09T00:22:30;19.93;;;7.87;;
71187;SDS011;58893;53.130;8.158;2022-09-09T00:25:02;14.30;;;8.57;;
71187;SDS011;58893;53.130;8.158;2022-09-09T00:27:48;11.87;;;7.70;;
71187;SDS011;58893;53.130;8.158;2022-09-09T00:32:44;11.90;;;7.20;;
71187;SDS011;58893;53.130;8.158;2022-09-09T00:37:47;12.60;;;7.40;;
71187;SDS011;58893;53.130;8.158;2022-09-09T00:40:25;14.17;;;8.60;;
71187;SDS011;58893;53.130;8.158;2022-09-09T00:48:26;15.57;;;7.93;;
71187;SDS011;58893;53.130;8.158;2022-09-09T00:51:02;17.03;;;7.90;;
71187;SDS011;58893;53.130;8.158;2022-09-09T00:53:51;18.60;;;7.17;;
71187;SDS011;58893;53.130;8.158;2022-09-09T00:59:35;10.33;;;6.73;;
71187;SDS011;58893;53.130;8.158;2022-09-09T01:02:14;28.10;;;8.23;;
71187;SDS011;58893;53.130;8.158;2022-09-09T01:04:47;13.00;;;8.20;;
71187;SDS011;58893;53.130;8.158;2022-09-09T01:07:15;16.40;;;9.23;;
71187;SDS011;58893;53.130;8.158;2022-09-09T01:09:54;16.80;;;9.40;;
71187;SDS011;58893;53.130;8.158;2022-09-09T01:12:41;13.13;;;8.80;;
71187;SDS011;58893;53.130;8.158;2022-09-09T01:15:10;16.43;;;8.57;;
71187;SDS011;58893;53.130;8.158;2022-09-09T01:20:37;13.53;;;8.63;;
71187;SDS011;58893;53.130;8.158;2022-09-09T01:28:33;21.57;;;10.20;;
71187;SDS011;58893;53.130;8.158;2022-09-09T01:31:02;13.80;;;7.90;;
71187;SDS011;58893;53.130;8.158;2022-09-09T01:33:30;16.57;;;8.80;;
71187;SDS011;58893;53.130;8.158;2022-09-09T01:38:28;15.77;;;8.53;;
71187;SDS011;58893;53.130;8.158;2022-09-09T01:40:56;12.33;;;8.10;;
71187;SDS011;58893;53.130;8.158;2022-09-09T01:43:23;12.90;;;7.37;;
71187;SDS011;58893;53.130;8.158;2022-09-09T01:45:51;13.50;;;8.40;;
71187;SDS011;58893;53.130;8.158;2022-09-09T01:48:21;15.90;;;9.77;;
71187;SDS011;58893;53.130;8.158;2022-09-09T01:50:48;13.93;;;7.73;;
71187;SDS011;58893;53.130;8.158;2022-09-09T01:53:14;12.30;;;8.27;;
71187;SDS011;58893;53.130;8.158;2022-09-09T01:55:42;15.03;;;9.07;;
71187;SDS011;58893;53.130;8.158;2022-09-09T02:01:24;14.70;;;8.67;;
71187;SDS011;58893;53.130;8.158;2022-09-09T02:07:01;14.77;;;8.80;;
71187;SDS011;58893;53.130;8.158;2022-09-09T02:09:26;18.20;;;8.80;;
71187;SDS011;58893;53.130;8.158;2022-09-09T02:11:57;17.47;;;10.50;;
71187;SDS011;58893;53.130;8.158;2022-09-09T02:14:31;18.50;;;9.97;;
71187;SDS011;58893;53.130;8.158;2022-09-09T02:17:10;15.10;;;9.63;;
71187;SDS011;58893;53.130;8.158;2022-09-09T02:19:49;15.27;;;8.63;;
71187;SDS011;58893;53.130;8.158;2022-09-09T02:22:20;18.43;;;9.50;;
71187;SDS011;58893;53.130;8.158;2022-09-09T02:24:49;16.93;;;9.50;;
71187;SDS011;58893;53.130;8.158;2022-09-09T02:27:19;15.87;;;8.93;;
71187;SDS011;58893;53.130;8.158;2022-09-09T02:29:46;27.37;;;9.80;;
71187;SDS011;58893;53.130;8.158;2022-09-09T02:32:15;15.53;;;9.43;;
71187;SDS011;58893;53.130;8.158;2022-09-09T02:34:49;12.70;;;7.47;;
71187;SDS011;58893;53.130;8.158;2022-09-09T02:37:31;7.63;;;5.63;;
71187;SDS011;58893;53.130;8.158;2022-09-09T02:40:01;9.40;;;6.37;;
71187;SDS011;58893;53.130;8.158;2022-09-09T02:42:43;20.40;;;7.00;;
71187;SDS011;58893;53.130;8.158;2022-09-09T02:45:11;11.57;;;7.07;;
71187;SDS011;58893;53.130;8.158;2022-09-09T02:50:34;17.40;;;8.00;;
71187;SDS011;58893;53.130;8.158;2022-09-09T02:56:05;14.77;;;7.80;;
71187;SDS011;58893;53.130;8.158;2022-09-09T02:58:39;10.57;;;6.83;;
71187;SDS011;58893;53.130;8.158;2022-09-09T03:01:05;13.07;;;7.40;;
71187;SDS011;58893;53.130;8.158;2022-09-09T03:03:30;11.93;;;7.73;;
71187;SDS011;58893;53.130;8.158;2022-09-09T03:05:57;12.90;;;7.00;;
71187;SDS011;58893;53.130;8.158;2022-09-09T03:08:23;13.37;;;7.10;;
71187;SDS011;58893;53.130;8.158;2022-09-09T03:10:48;11.67;;;6.83;;
71187;SDS011;58893;53.130;8.158;2022-09-09T03:13:14;10.37;;;7.80;;
71187;SDS011;58893;53.130;8.158;2022-09-09T03:15:40;13.83;;;7.10;;
71187;SDS011;58893;53.130;8.158;2022-09-09T03:18:06;13.30;;;6.47;;
71187;SDS011;58893;53.130;8.158;2022-09-09T03:20:31;12.80;;;7.30;;
71187;SDS011;58893;53.130;8.158;2022-09-09T03:22:58;13.40;;;7.40;;
71187;SDS011;58893;53.130;8.158;2022-09-09T03:25:25;11.93;;;7.80;;
71187;SDS011;58893;53.130;8.158;2022-09-09T03:27:51;12.30;;;7.20;;
71187;SDS011;58893;53.130;8.158;2022-09-09T03:30:23;11.47;;;7.90;;
71187;SDS011;58893;53.130;8.158;2022-09-09T03:32:49;16.83;;;7.13;;
71187;SDS011;58893;53.130;8.158;2022-09-09T03:35:15;16.27;;;6.80;;
71187;SDS011;58893;53.130;8.158;2022-09-09T03:37:41;14.30;;;8.07;;
71187;SDS011;58893;53.130;8.158;2022-09-09T03:40:07;12.20;;;6.13;;
71187;SDS011;58893;53.130;8.158;2022-09-09T03:42:34;15.53;;;7.63;;
71187;SDS011;58893;53.130;8.158;2022-09-09T03:45:02;15.87;;;6.73;;
71187;SDS011;58893;53.130;8.158;2022-09-09T03:47:31;16.23;;;7.10;;
71187;SDS011;58893;53.130;8.158;2022-09-09T03:49:57;11.30;;;6.43;;
71187;SDS011;58893;53.130;8.158;2022-09-09T03:52:22;15.70;;;6.90;;
71187;SDS011;58893;53.130;8.158;2022-09-09T03:54:50;11.60;;;6.57;;
71187;SDS011;58893;53.130;8.158;2022-09-09T03:57:16;17.43;;;6.70;;
71187;SDS011;58893;53.130;8.158;2022-09-09T03:59:42;8.83;;;6.27;;
71187;SDS011;58893;53.130;8.158;2022-09-09T04:02:08;20.57;;;7.40;;
71187;SDS011;58893;53.130;8.158;2022-09-09T04:04:34;14.57;;;6.50;;
71187;SDS011;58893;53.130;8.158;2022-09-09T04:06:59;10.07;;;6.60;;
71187;SDS011;58893;53.130;8.158;2022-09-09T04:09:25;12.80;;;6.67;;
71187;SDS011;58893;53.130;8.158;2022-09-09T04:11:51;16.20;;;6.80;;
71187;SDS011;58893;53.130;8.158;2022-09-09T04:14:18;26.33;;;7.70;;
71187;SDS011;58893;53.130;8.158;2022-09-09T04:16:44;11.60;;;6.37;;
71187;SDS011;58893;53.130;8.158;2022-09-09T04:19:10;8.77;;;6.30;;
71187;SDS011;58893;53.130;8.158;2022-09-09T04:21:38;12.33;;;6.27;;
71187;SDS011;58893;53.130;8.158;2022-09-09T04:24:05;9.93;;;5.57;;
71187;SDS011;58893;53.130;8.158;2022-09-09T04:26:32;13.73;;;7.53;;
71187;SDS011;58893;53.130;8.158;2022-09-09T04:28:58;11.50;;;6.53;;
71187;SDS011;58893;53.130;8.158;2022-09-09T04:31:23;14.77;;;6.10;;
71187;SDS011;58893;53.130;8.158;2022-09-09T04:33:49;13.13;;;6.87;;
71187;SDS011;58893;53.130;8.158;2022-09-09T04:36:15;12.30;;;6.87;;
71187;SDS011;58893;53.130;8.158;2022-09-09T04:38:41;13.50;;;6.70;;
71187;SDS011;58893;53.130;8.158;2022-09-09T04:41:09;11.43;;;8.33;;
71187;SDS011;58893;53.130;8.158;2022-09-09T04:43:36;9.50;;;6.00;;
71187;SDS011;58893;53.130;8.158;2022-09-09T04:46:02;13.33;;;5.67;;
71187;SDS011;58893;53.130;8.158;2022-09-09T04:48:28;13.20;;;6.77;;
71187;SDS011;58893;53.130;8.158;2022-09-09T04:51:03;14.30;;;7.03;;
71187;SDS011;58893;53.130;8.158;2022-09-09T04:53:30;14.10;;;6.20;;
71187;SDS011;58893;53.130;8.158;2022-09-09T04:56:06;9.07;;;5.97;;
71187;SDS011;58893;53.130;8.158;2022-09-09T04:58:37;9.70;;;6.00;;
71187;SDS011;58893;53.130;8.158;2022-09-09T05:01:13;7.00;;;5.43;;
71187;SDS011;58893;53.130;8.158;2022-09-09T05:03:42;16.07;;;7.07;;
71187;SDS011;58893;53.130;8.158;2022-09-09T05:06:11;11.07;;;5.67;;
71187;SDS011;58893;53.130;8.158;2022-09-09T05:08:39;18.10;;;7.50;;
71187;SDS011;58893;53.130;8.158;2022-09-09T05:13:47;9.03;;;5.40;;
71187;SDS011;58893;53.130;8.158;2022-09-09T05:16:15;10.80;;;5.50;;
71187;SDS011;58893;53.130;8.158;2022-09-09T05:18:41;13.33;;;5.77;;
71187;SDS011;58893;53.130;8.158;2022-09-09T05:21:11;8.70;;;5.63;;
71187;SDS011;58893;53.130;8.158;2022-09-09T05:23:38;7.67;;;4.63;;
71187;SDS011;58893;53.130;8.158;2022-09-09T05:26:04;8.77;;;5.63;;
71187;SDS011;58893;53.130;8.158;2022-09-09T05:28:30;9.20;;;5.67;;
71187;SDS011;58893;53.130;8.158;2022-09-09T05:30:59;8.97;;;4.47;;
71187;SDS011;58893;53.130;8.158;2022-09-09T05:33:26;10.33;;;6.30;;
71187;SDS011;58893;53.130;8.158;2022-09-09T05:36:05;10.70;;;5.80;;
71187;SDS011;58893;53.130;8.158;2022-09-09T05:38:37;15.13;;;6.40;;
71187;SDS011;58893;53.130;8.158;2022-09-09T05:41:04;13.10;;;5.57;;
71187;SDS011;58893;53.130;8.158;2022-09-09T05:43:30;9.50;;;5.50;;
71187;SDS011;58893;53.130;8.158;2022-09-09T05:46:13;8.60;;;5.50;;
71187;SDS011;58893;53.130;8.158;2022-09-09T05:48:41;13.30;;;5.23;;
71187;SDS011;58893;53.130;8.158;2022-09-09T05:51:10;17.40;;;5.33;;
71187;SDS011;58893;53.130;8.158;2022-09-09T05:53:43;9.03;;;5.00;;
71187;SDS011;58893;53.130;8.158;2022-09-09T05:58:36;10.93;;;5.03;;
71187;SDS011;58893;53.130;8.158;2022-09-09T06:01:10;8.27;;;4.80;;
71187;SDS011;58893;53.130;8.158;2022-09-09T06:03:39;6.97;;;4.40;;
71187;SDS011;58893;53.130;8.158;2022-09-09T06:06:06;6.90;;;4.63;;
71187;SDS011;58893;53.130;8.158;2022-09-09T06:08:34;8.10;;;4.83;;
71187;SDS011;58893;53.130;8.158;2022-09-09T06:11:04;6.10;;;4.27;;
71187;SDS011;58893;53.130;8.158;2022-09-09T06:13:32;8.57;;;4.77;;
71187;SDS011;58893;53.130;8.158;2022-09-09T06:15:58;12.97;;;4.70;;
71187;SDS011;58893;53.130;8.158;2022-09-09T06:18:25;8.60;;;4.40;;
71187;SDS011;58893;53.130;8.158;2022-09-09T06:20:54;8.20;;;4.93;;
71187;SDS011;58893;53.130;8.158;2022-09-09T06:23:31;9.90;;;3.90;;
71187;SDS011;58893;53.130;8.158;2022-09-09T06:26:04;7.43;;;4.70;;
71187;SDS011;58893;53.130;8.158;2022-09-09T06:28:34;10.13;;;4.40;;
71187;SDS011;58893;53.130;8.158;2022-09-09T06:31:04;8.73;;;4.70;;
71187;SDS011;58893;53.130;8.158;2022-09-09T06:33:32;5.90;;;4.53;;
71187;SDS011;58893;53.130;8.158;2022-09-09T06:36:00;11.17;;;3.77;;
71187;SDS011;58893;53.130;8.158;2022-09-09T06:38:28;6.20;;;4.60;;
71187;SDS011;58893;53.130;8.158;2022-09-09T06:40:54;10.93;;;4.07;;
71187;SDS011;58893;53.130;8.158;2022-09-09T06:43:21;13.37;;;4.40;;
71187;SDS011;58893;53.130;8.158;2022-09-09T06:48:28;8.80;;;4.90;;
71187;SDS011;58893;53.130;8.158;2022-09-09T06:51:10;9.63;;;4.80;;
71187;SDS011;58893;53.130;8.158;2022-09-09T06:53:36;8.37;;;4.93;;
71187;SDS011;58893;53.130;8.158;2022-09-09T06:58:34;9.33;;;4.77;;
71187;SDS011;58893;53.130;8.158;2022-09-09T07:01:02;8.20;;;4.50;;
71187;SDS011;58893;53.130;8.158;2022-09-09T07:03:31;6.57;;;4.43;;
71187;SDS011;58893;53.130;8.158;2022-09-09T07:05:58;6.83;;;4.73;;
71187;SDS011;58893;53.130;8.158;2022-09-09T07:08:24;9.40;;;4.97;;
71187;SDS011;58893;53.130;8.158;2022-09-09T07:10:50;10.57;;;5.20;;
71187;SDS011;58893;53.130;8.158;2022-09-09T07:13:19;8.93;;;5.10;;
71187;SDS011;58893;53.130;8.158;2022-09-09T07:15:51;9.50;;;5.47;;
71187;SDS011;58893;53.130;8.158;2022-09-09T07:18:17;10.13;;;5.23;;
71187;SDS011;58893;53.130;8.158;2022-09-09T07:20:43;17.63;;;4.20;;
71187;SDS011;58893;53.130;8.158;2022-09-09T07:23:18;8.67;;;5.30;;
71187;SDS011;58893;53.130;8.158;2022-09-09T07:25:46;9.93;;;5.73;;
71187;SDS011;58893;53.130;8.158;2022-09-09T07:28:12;11.23;;;5.10;;
71187;SDS011;58893;53.130;8.158;2022-09-09T07:30:39;11.40;;;5.50;;
71187;SDS011;58893;53.130;8.158;2022-09-09T07:33:05;7.60;;;4.67;;
71187;SDS011;58893;53.130;8.158;2022-09-09T07:35:31;13.83;;;5.63;;
71187;SDS011;58893;53.130;8.158;2022-09-09T07:37:56;13.03;;;5.40;;
71187;SDS011;58893;53.130;8.158;2022-09-09T07:40:23;8.30;;;5.00;;
71187;SDS011;58893;53.130;8.158;2022-09-09T07:42:49;8.93;;;5.60;;
71187;SDS011;58893;53.130;8.158;2022-09-09T07:45:15;9.00;;;5.60;;
71187;SDS011;58893;53.130;8.158;2022-09-09T07:47:40;13.00;;;5.43;;
71187;SDS011;58893;53.130;8.158;2022-09-09T07:50:07;10.77;;;5.60;;
71187;SDS011;58893;53.130;8.158;2022-09-09T07:52:34;15.60;;;7.77;;
71187;SDS011;58893;53.130;8.158;2022-09-09T07:55:00;8.63;;;5.60;;
71187;SDS011;58893;53.130;8.158;2022-09-09T07:57:27;9.90;;;4.50;;
71187;SDS011;58893;53.130;8.158;2022-09-09T07:59:55;12.30;;;5.20;;
71187;SDS011;58893;53.130;8.158;2022-09-09T08:02:22;13.93;;;4.97;;
71187;SDS011;58893;53.130;8.158;2022-09-09T08:04:48;11.00;;;6.10;;
71187;SDS011;58893;53.130;8.158;2022-09-09T08:07:14;11.53;;;6.03;;
71187;SDS011;58893;53.130;8.158;2022-09-09T08:09:41;15.57;;;6.30;;
71187;SDS011;58893;53.130;8.158;2022-09-09T08:12:07;11.67;;;5.40;;
71187;SDS011;58893;53.130;8.158;2022-09-09T08:14:33;12.77;;;6.03;;
71187;SDS011;58893;53.130;8.158;2022-09-09T08:16:58;9.97;;;5.90;;
71187;SDS011;58893;53.130;8.158;2022-09-09T08:19:24;13.17;;;5.63;;
71187;SDS011;58893;53.130;8.158;2022-09-09T08:21:50;12.60;;;5.20;;
71187;SDS011;58893;53.130;8.158;2022-09-09T08:24:16;9.23;;;4.80;;
71187;SDS011;58893;53.130;8.158;2022-09-09T08:26:44;7.37;;;4.80;;
71187;SDS011;58893;53.130;8.158;2022-09-09T08:29:15;9.93;;;4.70;;
71187;SDS011;58893;53.130;8.158;2022-09-09T08:34:09;5.90;;;3.73;;
71187;SDS011;58893;53.130;8.158;2022-09-09T08:36:42;15.10;;;5.60;;
71187;SDS011;58893;53.130;8.158;2022-09-09T08:39:10;16.17;;;5.33;;
71187;SDS011;58893;53.130;8.158;2022-09-09T08:47:20;8.00;;;3.70;;
71187;SDS011;58893;53.130;8.158;2022-09-09T08:57:51;6.10;;;3.83;;
71187;SDS011;58893;53.130;8.158;2022-09-09T09:00:19;8.60;;;3.40;;
71187;SDS011;58893;53.130;8.158;2022-09-09T09:02:53;13.33;;;5.77;;
71187;SDS011;58893;53.130;8.158;2022-09-09T09:05:27;7.07;;;3.67;;
71187;SDS011;58893;53.130;8.158;2022-09-09T09:10:50;9.23;;;3.83;;
71187;SDS011;58893;53.130;8.158;2022-09-09T09:15:52;5.40;;;2.80;;
71187;SDS011;58893;53.130;8.158;2022-09-09T09:18:21;5.23;;;3.20;;
71187;SDS011;58893;53.130;8.158;2022-09-09T09:23:22;8.20;;;3.30;;
71187;SDS011;58893;53.130;8.158;2022-09-09T09:25:50;6.00;;;3.27;;
71187;SDS011;58893;53.130;8.158;2022-09-09T09:28:23;12.00;;;3.47;;
71187;SDS011;58893;53.130;8.158;2022-09-09T09:36:00;6.60;;;3.83;;
71187;SDS011;58893;53.130;8.158;2022-09-09T09:38:27;8.20;;;4.30;;
71187;SDS011;58893;53.130;8.158;2022-09-09T09:40:57;8.33;;;4.10;;
71187;SDS011;58893;53.130;8.158;2022-09-09T09:43:33;9.23;;;3.87;;
71187;SDS011;58893;53.130;8.158;2022-09-09T09:46:00;12.03;;;4.33;;
71187;SDS011;58893;53.130;8.158;2022-09-09T09:48:29;9.57;;;4.93;;
71187;SDS011;58893;53.130;8.158;2022-09-09T09:50:59;4.27;;;3.80;;
71187;SDS011;58893;53.130;8.158;2022-09-09T09:53:36;13.40;;;4.00;;
71187;SDS011;58893;53.130;8.158;2022-09-09T09:56:10;4.80;;;4.20;;
71187;SDS011;58893;53.130;8.158;2022-09-09T10:04:14;14.40;;;4.20;;
71187;SDS011;58893;53.130;8.158;2022-09-09T10:06:45;4.83;;;3.80;;
71187;SDS011;58893;53.130;8.158;2022-09-09T10:09:45;5.90;;;4.03;;
71187;SDS011;58893;53.130;8.158;2022-09-09T10:20:54;9.00;;;3.27;;
71187;SDS011;58893;53.130;8.158;2022-09-09T10:42:52;13.60;;;4.37;;
71187;SDS011;58893;53.130;8.158;2022-09-09T10:53:28;6.97;;;3.60;;
71187;SDS011;58893;53.130;8.158;2022-09-09T10:56:15;6.77;;;3.30;;
71187;SDS011;58893;53.130;8.158;2022-09-09T11:06:55;8.07;;;3.40;;
71187;SDS011;58893;53.130;8.158;2022-09-09T11:09:23;9.37;;;3.60;;
71187;SDS011;58893;53.130;8.158;2022-09-09T11:11:54;7.53;;;3.57;;
71187;SDS011;58893;53.130;8.158;2022-09-09T11:17:12;9.30;;;3.30;;
71187;SDS011;58893;53.130;8.158;2022-09-09T11:19:42;11.07;;;3.67;;
71187;SDS011;58893;53.130;8.158;2022-09-09T11:22:15;3.73;;;3.40;;
71187;SDS011;58893;53.130;8.158;2022-09-09T11:24:52;8.73;;;3.90;;
71187;SDS011;58893;53.130;8.158;2022-09-09T11:27:30;6.50;;;3.80;;
71187;SDS011;58893;53.130;8.158;2022-09-09T11:30:20;7.17;;;3.97;;
71187;SDS011;58893;53.130;8.158;2022-09-09T11:40:56;6.10;;;3.90;;
71187;SDS011;58893;53.130;8.158;2022-09-09T11:45:57;11.93;;;4.50;;
71187;SDS011;58893;53.130;8.158;2022-09-09T11:48:35;6.23;;;3.87;;
71187;SDS011;58893;53.130;8.158;2022-09-09T11:56:41;14.00;;;3.83;;
71187;SDS011;58893;53.130;8.158;2022-09-09T12:09:29;9.87;;;3.67;;
71187;SDS011;58893;53.130;8.158;2022-09-09T12:14:42;8.83;;;3.13;;
71187;SDS011;58893;53.130;8.158;2022-09-09T12:17:19;9.20;;;3.60;;
71187;SDS011;58893;53.130;8.158;2022-09-09T12:19:47;7.40;;;3.40;;
71187;SDS011;58893;53.130;8.158;2022-09-09T12:28:19;10.53;;;5.47;;
71187;SDS011;58893;53.130;8.158;2022-09-09T12:33:19;10.53;;;4.80;;
71187;SDS011;58893;53.130;8.158;2022-09-09T12:35:50;10.90;;;6.07;;
71187;SDS011;58893;53.130;8.158;2022-09-09T12:38:53;12.83;;;5.30;;
71187;SDS011;58893;53.130;8.158;2022-09-09T12:41:20;12.10;;;5.83;;
71187;SDS011;58893;53.130;8.158;2022-09-09T12:43:46;11.37;;;5.83;;
71187;SDS011;58893;53.130;8.158;2022-09-09T12:46:16;10.50;;;5.37;;
71187;SDS011;58893;53.130;8.158;2022-09-09T12:48:54;12.27;;;6.47;;
71187;SDS011;58893;53.130;8.158;2022-09-09T12:51:27;22.83;;;6.77;;
71187;SDS011;58893;53.130;8.158;2022-09-09T12:53:55;11.43;;;7.07;;
71187;SDS011;58893;53.130;8.158;2022-09-09T12:56:22;9.43;;;6.30;;
71187;SDS011;58893;53.130;8.158;2022-09-09T12:58:52;11.67;;;5.43;;
71187;SDS011;58893;53.130;8.158;2022-09-09T13:01:24;10.50;;;5.80;;
71187;SDS011;58893;53.130;8.158;2022-09-09T13:03:53;13.73;;;5.40;;
71187;SDS011;58893;53.130;8.158;2022-09-09T13:06:21;9.70;;;6.23;;
71187;SDS011;58893;53.130;8.158;2022-09-09T13:08:48;8.90;;;5.63;;
71187;SDS011;58893;53.130;8.158;2022-09-09T13:14:26;19.40;;;5.70;;
71187;SDS011;58893;53.130;8.158;2022-09-09T13:16:58;8.27;;;5.00;;
71187;SDS011;58893;53.130;8.158;2022-09-09T13:19:25;9.53;;;4.13;;
71187;SDS011;58893;53.130;8.158;2022-09-09T13:21:56;12.63;;;5.07;;
71187;SDS011;58893;53.130;8.158;2022-09-09T13:24:30;5.63;;;3.73;;
71187;SDS011;58893;53.130;8.158;2022-09-09T13:26:58;9.53;;;4.70;;
71187;SDS011;58893;53.130;8.158;2022-09-09T13:29:29;6.07;;;3.80;;
71187;SDS011;58893;53.130;8.158;2022-09-09T13:32:06;6.70;;;4.50;;
71187;SDS011;58893;53.130;8.158;2022-09-09T13:37:53;8.80;;;4.20;;
71187;SDS011;58893;53.130;8.158;2022-09-09T13:40:18;8.00;;;4.00;;
71187;SDS011;58893;53.130;8.158;2022-09-09T13:42:46;9.43;;;4.00;;
71187;SDS011;58893;53.130;8.158;2022-09-09T13:45:16;9.40;;;4.73;;
71187;SDS011;58893;53.130;8.158;2022-09-09T13:47:47;8.17;;;4.27;;
71187;SDS011;58893;53.130;8.158;2022-09-09T13:50:20;8.90;;;3.73;;
71187;SDS011;58893;53.130;8.158;2022-09-09T13:52:48;11.23;;;3.90;;
71187;SDS011;58893;53.130;8.158;2022-09-09T13:55:16;6.70;;;4.37;;
71187;SDS011;58893;53.130;8.158;2022-09-09T14:00:22;7.60;;;3.40;;
71187;SDS011;58893;53.130;8.158;2022-09-09T14:02:49;9.33;;;3.90;;
71187;SDS011;58893;53.130;8.158;2022-09-09T14:05:15;15.27;;;5.47;;
71187;SDS011;58893;53.130;8.158;2022-09-09T14:07:41;11.50;;;5.80;;
71187;SDS011;58893;53.130;8.158;2022-09-09T14:10:08;8.23;;;4.77;;
71187;SDS011;58893;53.130;8.158;2022-09-09T14:12:34;8.43;;;4.80;;
71187;SDS011;58893;53.130;8.158;2022-09-09T14:15:01;10.67;;;4.00;;
71187;SDS011;58893;53.130;8.158;2022-09-09T14:17:28;9.40;;;3.47;;
71187;SDS011;58893;53.130;8.158;2022-09-09T14:19:55;8.13;;;3.50;;
71187;SDS011;58893;53.130;8.158;2022-09-09T14:22:21;4.30;;;3.40;;
71187;SDS011;58893;53.130;8.158;2022-09-09T14:24:48;5.43;;;3.03;;
71187;SDS011;58893;53.130;8.158;2022-09-09T14:27:14;3.97;;;3.20;;
71187;SDS011;58893;53.130;8.158;2022-09-09T14:29:40;8.50;;;3.37;;
71187;SDS011;58893;53.130;8.158;2022-09-09T14:32:05;8.47;;;3.13;;
71187;SDS011;58893;53.130;8.158;2022-09-09T14:34:31;7.87;;;3.27;;
71187;SDS011;58893;53.130;8.158;2022-09-09T14:36:57;5.37;;;2.90;;
71187;SDS011;58893;53.130;8.158;2022-09-09T14:39:23;3.10;;;2.80;;
71187;SDS011;58893;53.130;8.158;2022-09-09T14:41:49;4.50;;;2.93;;
71187;SDS011;58893;53.130;8.158;2022-09-09T14:44:14;9.53;;;3.37;;
71187;SDS011;58893;53.130;8.158;2022-09-09T14:46:41;8.23;;;4.50;;
71187;SDS011;58893;53.130;8.158;2022-09-09T14:49:07;5.17;;;3.53;;
71187;SDS011;58893;53.130;8.158;2022-09-09T14:51:35;5.00;;;3.60;;
71187;SDS011;58893;53.130;8.158;2022-09-09T14:54:01;8.70;;;3.60;;
71187;SDS011;58893;53.130;8.158;2022-09-09T14:56:28;18.57;;;3.50;;
71187;SDS011;58893;53.130;8.158;2022-09-09T14:58:55;7.33;;;4.40;;
71187;SDS011;58893;53.130;8.158;2022-09-09T15:01:22;4.63;;;3.50;;
71187;SDS011;58893;53.130;8.158;2022-09-09T15:03:49;10.43;;;2.90;;
71187;SDS011;58893;53.130;8.158;2022-09-09T15:06:26;6.83;;;3.50;;
71187;SDS011;58893;53.130;8.158;2022-09-09T15:08:54;6.30;;;3.40;;
71187;SDS011;58893;53.130;8.158;2022-09-09T15:11:22;18.13;;;3.30;;
71187;SDS011;58893;53.130;8.158;2022-09-09T15:13:50;10.33;;;2.60;;
71187;SDS011;58893;53.130;8.158;2022-09-09T15:16:20;5.13;;;2.90;;
71187;SDS011;58893;53.130;8.158;2022-09-09T15:18:50;3.23;;;2.80;;
71187;SDS011;58893;53.130;8.158;2022-09-09T15:21:17;5.43;;;3.23;;
71187;SDS011;58893;53.130;8.158;2022-09-09T15:23:44;4.43;;;3.37;;
71187;SDS011;58893;53.130;8.158;2022-09-09T15:26:10;7.53;;;3.70;;
71187;SDS011;58893;53.130;8.158;2022-09-09T15:28:39;3.07;;;2.77;;
71187;SDS011;58893;53.130;8.158;2022-09-09T15:31:06;8.00;;;3.20;;
71187;SDS011;58893;53.130;8.158;2022-09-09T15:33:35;16.77;;;2.70;;
71187;SDS011;58893;53.130;8.158;2022-09-09T15:38:40;7.70;;;2.80;;
71187;SDS011;58893;53.130;8.158;2022-09-09T15:41:05;4.57;;;2.70;;
71187;SDS011;58893;53.130;8.158;2022-09-09T15:43:31;3.73;;;2.90;;
71187;SDS011;58893;53.130;8.158;2022-09-09T15:45:58;4.50;;;2.37;;
71187;SDS011;58893;53.130;8.158;2022-09-09T15:48:33;14.00;;;2.20;;
71187;SDS011;58893;53.130;8.158;2022-09-09T15:51:03;2.13;;;1.77;;
71187;SDS011;58893;53.130;8.158;2022-09-09T15:53:29;5.93;;;2.00;;
71187;SDS011;58893;53.130;8.158;2022-09-09T15:55:57;5.10;;;1.93;;
71187;SDS011;58893;53.130;8.158;2022-09-09T15:58:23;4.13;;;2.37;;
71187;SDS011;58893;53.130;8.158;2022-09-09T16:00:48;3.97;;;1.93;;
71187;SDS011;58893;53.130;8.158;2022-09-09T16:03:14;2.40;;;2.17;;
71187;SDS011;58893;53.130;8.158;2022-09-09T16:05:40;5.57;;;1.70;;
71187;SDS011;58893;53.130;8.158;2022-09-09T16:08:06;5.73;;;2.30;;
71187;SDS011;58893;53.130;8.158;2022-09-09T16:10:31;9.43;;;2.33;;
71187;SDS011;58893;53.130;8.158;2022-09-09T16:12:57;3.13;;;1.77;;
71187;SDS011;58893;53.130;8.158;2022-09-09T16:15:23;2.03;;;1.83;;
71187;SDS011;58893;53.130;8.158;2022-09-09T16:17:49;6.40;;;2.70;;
71187;SDS011;58893;53.130;8.158;2022-09-09T16:20:21;2.77;;;1.87;;
71187;SDS011;58893;53.130;8.158;2022-09-09T16:22:46;8.60;;;2.60;;
71187;SDS011;58893;53.130;8.158;2022-09-09T16:25:12;5.57;;;2.17;;
71187;SDS011;58893;53.130;8.158;2022-09-09T16:27:37;2.03;;;1.90;;
71187;SDS011;58893;53.130;8.158;2022-09-09T16:30:03;4.30;;;2.20;;
71187;SDS011;58893;53.130;8.158;2022-09-09T16:32:29;6.67;;;2.50;;
71187;SDS011;58893;53.130;8.158;2022-09-09T16:34:55;7.50;;;3.20;;
71187;SDS011;58893;53.130;8.158;2022-09-09T16:37:21;6.03;;;2.40;;
71187;SDS011;58893;53.130;8.158;2022-09-09T16:39:46;3.83;;;2.37;;
71187;SDS011;58893;53.130;8.158;2022-09-09T16:42:12;9.43;;;3.10;;
71187;SDS011;58893;53.130;8.158;2022-09-09T16:44:37;2.53;;;2.30;;
71187;SDS011;58893;53.130;8.158;2022-09-09T16:47:03;4.67;;;2.90;;
71187;SDS011;58893;53.130;8.158;2022-09-09T16:49:29;4.77;;;2.60;;
71187;SDS011;58893;53.130;8.158;2022-09-09T16:51:56;10.83;;;2.40;;
71187;SDS011;58893;53.130;8.158;2022-09-09T16:54:23;23.73;;;3.80;;
71187;SDS011;58893;53.130;8.158;2022-09-09T16:56:51;6.83;;;2.43;;
71187;SDS011;58893;53.130;8.158;2022-09-09T16:59:18;4.87;;;2.30;;
71187;SDS011;58893;53.130;8.158;2022-09-09T17:01:47;8.50;;;3.50;;
71187;SDS011;58893;53.130;8.158;2022-09-09T17:04:15;6.90;;;3.30;;
71187;SDS011;58893;53.130;8.158;2022-09-09T17:06:46;4.20;;;2.67;;
71187;SDS011;58893;53.130;8.158;2022-09-09T17:09:14;3.83;;;2.63;;
71187;SDS011;58893;53.130;8.158;2022-09-09T17:11:40;5.90;;;3.80;;
71187;SDS011;58893;53.130;8.158;2022-09-09T17:14:06;10.40;;;3.50;;
71187;SDS011;58893;53.130;8.158;2022-09-09T17:16:34;4.90;;;3.50;;
71187;SDS011;58893;53.130;8.158;2022-09-09T17:19:00;5.87;;;3.10;;
71187;SDS011;58893;53.130;8.158;2022-09-09T17:21:28;16.43;;;3.37;;
71187;SDS011;58893;53.130;8.158;2022-09-09T17:23:56;5.60;;;2.53;;
71187;SDS011;58893;53.130;8.158;2022-09-09T17:26:24;6.20;;;2.80;;
71187;SDS011;58893;53.130;8.158;2022-09-09T17:28:52;4.67;;;3.00;;
71187;SDS011;58893;53.130;8.158;2022-09-09T17:31:18;6.53;;;3.33;;
71187;SDS011;58893;53.130;8.158;2022-09-09T17:33:45;6.53;;;2.40;;
71187;SDS011;58893;53.130;8.158;2022-09-09T17:38:49;6.20;;;2.43;;
71187;SDS011;58893;53.130;8.158;2022-09-09T17:41:17;6.30;;;3.50;;
71187;SDS011;58893;53.130;8.158;2022-09-09T17:43:44;8.00;;;3.67;;
71187;SDS011;58893;53.130;8.158;2022-09-09T17:46:12;7.87;;;2.90;;
71187;SDS011;58893;53.130;8.158;2022-09-09T17:48:46;6.03;;;3.20;;
71187;SDS011;58893;53.130;8.158;2022-09-09T17:51:13;4.20;;;3.13;;
71187;SDS011;58893;53.130;8.158;2022-09-09T17:53:44;5.20;;;2.97;;
71187;SDS011;58893;53.130;8.158;2022-09-09T17:56:12;5.77;;;3.50;;